Time;durP1;ratioP1;P1;durP2;ratioP2;P2;SDS_P1;SDS_P2;PMS_P1;PMS_P2;Temp;Humidity;BMP_temperature;BMP_pressure;BME280_temperature;BME280_humidity;BME280_pressure;Samples;Min_cycle;Max_cycle;Signal;HPM_P1;HPM_P2
2022/05/16 00:00:26;;;;;;;10.93;4.10;;;12.30;99.90;;;;;;5107840;27;20043;-68
2022/05/16 00:02:53;;;;;;;9.07;4.15;;;12.20;99.90;;;;;;5108886;27;20070;-68
2022/05/16 00:05:19;;;;;;;11.57;4.55;;;12.30;99.90;;;;;;5109222;27;20499;-68
2022/05/16 00:07:45;;;;;;;12.52;4.03;;;12.20;99.90;;;;;;5105824;27;20632;-68
2022/05/16 00:10:14;;;;;;;11.02;3.85;;;12.30;99.90;;;;;;5087495;27;20047;-68
2022/05/16 00:12:40;;;;;;;11.88;4.25;;;12.30;99.90;;;;;;5088894;27;20054;-68
2022/05/16 00:15:09;;;;;;;12.82;4.75;;;12.30;99.90;;;;;;5114976;27;20495;-68
2022/05/16 00:17:35;;;;;;;12.73;4.35;;;12.30;99.90;;;;;;5110272;27;20512;-69
2022/05/16 00:20:01;;;;;;;14.85;4.43;;;12.30;99.90;;;;;;5125051;27;20050;-69
2022/05/16 00:22:27;;;;;;;12.65;5.05;;;12.30;99.90;;;;;;5100880;27;20556;-69
2022/05/16 00:24:54;;;;;;;13.85;4.57;;;12.30;99.90;;;;;;5087766;27;20586;-69
2022/05/16 00:27:20;;;;;;;12.48;4.70;;;12.30;99.90;;;;;;5115249;27;20429;-69
2022/05/16 00:29:46;;;;;;;12.10;4.30;;;12.30;99.90;;;;;;5086640;27;20051;-68
2022/05/16 00:32:13;;;;;;;12.25;4.80;;;12.30;99.90;;;;;;5076134;27;20070;-68
2022/05/16 00:34:39;;;;;;;13.25;4.93;;;12.30;99.90;;;;;;5105331;27;21537;-68
2022/05/16 00:37:06;;;;;;;14.00;5.15;;;12.30;99.90;;;;;;5089849;27;20096;-69
2022/05/16 00:39:32;;;;;;;12.43;4.95;;;12.30;99.90;;;;;;5093793;27;20047;-68
2022/05/16 00:41:58;;;;;;;12.35;4.65;;;12.30;99.90;;;;;;5104570;27;20043;-68
2022/05/16 00:44:24;;;;;;;12.68;4.68;;;12.30;99.90;;;;;;5084822;28;20054;-68
2022/05/16 00:46:50;;;;;;;11.23;4.55;;;12.30;99.90;;;;;;5112685;27;20408;-68
2022/05/16 00:49:33;;;;;;;9.40;4.30;;;12.30;99.90;;;;;;5114263;27;20069;-69
2022/05/16 00:52:07;;;;;;;10.48;4.22;;;12.40;99.90;;;;;;5113734;27;20054;-68
2022/05/16 00:54:41;;;;;;;13.32;5.25;;;12.30;99.90;;;;;;5079922;28;20065;-69
2022/05/16 00:57:12;;;;;;;13.07;5.00;;;12.30;99.90;;;;;;5109036;27;20522;-69
2022/05/16 00:59:44;;;;;;;12.52;4.72;;;12.30;99.90;;;;;;5078199;27;20640;-70
2022/05/16 01:04:55;;;;;;;10.93;4.50;;;12.30;99.90;;;;;;5098638;27;20054;-67
2022/05/16 01:07:33;;;;;;;11.48;4.25;;;12.30;99.90;;;;;;5093449;28;20046;-67
2022/05/16 01:09:59;;;;;;;12.38;4.57;;;12.30;99.90;;;;;;5108977;28;20044;-67
2022/05/16 01:12:32;;;;;;;11.45;4.63;;;12.30;99.90;;;;;;5093707;28;20140;-67
2022/05/16 01:15:00;;;;;;;10.85;4.22;;;12.30;99.90;;;;;;5094393;28;20553;-68
2022/05/16 01:17:26;;;;;;;10.73;4.22;;;12.30;99.90;;;;;;5118838;28;20046;-68
2022/05/16 01:19:52;;;;;;;15.85;4.95;;;12.20;99.90;;;;;;5090563;28;20112;-68
2022/05/16 01:22:27;;;;;;;11.32;4.45;;;12.20;99.90;;;;;;5119616;27;20051;-69
2022/05/16 01:24:55;;;;;;;11.00;4.18;;;12.20;99.90;;;;;;5101593;28;20057;-67
2022/05/16 01:27:21;;;;;;;12.43;5.00;;;12.20;99.90;;;;;;5095505;27;20042;-68
2022/05/16 01:29:49;;;;;;;9.20;4.18;;;12.10;99.90;;;;;;5111980;27;20043;-68
2022/05/16 01:32:15;;;;;;;9.85;4.30;;;12.10;99.90;;;;;;5118587;27;20100;-68
2022/05/16 01:34:41;;;;;;;11.07;4.07;;;12.10;99.90;;;;;;5098240;28;20082;-68
2022/05/16 01:37:08;;;;;;;10.50;4.60;;;12.10;99.90;;;;;;5080563;28;20078;-68
2022/05/16 01:39:36;;;;;;;9.35;3.92;;;12.10;99.90;;;;;;5114163;27;20147;-68
2022/05/16 01:42:02;;;;;;;12.27;3.95;;;12.10;99.90;;;;;;5113804;28;20443;-68
2022/05/16 01:44:27;;;;;;;10.23;4.50;;;12.10;99.90;;;;;;5114487;27;20061;-68
2022/05/16 01:46:53;;;;;;;13.05;4.07;;;12.10;99.90;;;;;;5081633;28;20925;-68
2022/05/16 01:49:19;;;;;;;8.40;3.95;;;12.10;99.90;;;;;;5114090;28;20042;-68
2022/05/16 01:51:44;;;;;;;10.68;3.97;;;12.00;99.90;;;;;;5099306;28;20419;-69
2022/05/16 01:54:10;;;;;;;9.90;4.15;;;12.00;99.90;;;;;;5090691;28;20047;-69
2022/05/16 01:56:36;;;;;;;10.32;4.28;;;12.00;99.90;;;;;;5096106;28;20043;-68
2022/05/16 01:59:04;;;;;;;11.95;3.80;;;11.90;99.90;;;;;;5078129;28;20090;-69
2022/05/16 02:01:30;;;;;;;12.68;4.03;;;12.10;99.90;;;;;;5095777;28;20074;-68
2022/05/16 02:03:56;;;;;;;10.88;3.50;;;11.90;99.90;;;;;;5085267;28;20066;-68
2022/05/16 02:06:22;;;;;;;9.07;3.78;;;11.90;99.90;;;;;;5101540;28;20483;-68
2022/05/16 02:08:48;;;;;;;8.85;3.55;;;11.90;99.90;;;;;;5104919;28;20150;-69
2022/05/16 02:11:14;;;;;;;8.40;3.33;;;11.80;99.90;;;;;;5073222;28;20079;-68
2022/05/16 02:13:42;;;;;;;8.25;3.17;;;11.80;99.90;;;;;;5092505;27;20070;-69
2022/05/16 02:16:09;;;;;;;9.52;3.67;;;11.80;99.90;;;;;;5108651;27;20047;-68
2022/05/16 02:18:35;;;;;;;8.60;2.85;;;11.80;99.90;;;;;;5091173;27;20054;-68
2022/05/16 02:26:29;;;;;;;6.25;2.70;;;11.70;99.90;;;;;;5123190;27;20086;-69
2022/05/16 02:28:55;;;;;;;8.45;3.28;;;11.70;99.90;;;;;;5121292;27;20078;-68
2022/05/16 02:31:21;;;;;;;8.27;3.00;;;11.70;99.90;;;;;;5105914;27;20042;-68
2022/05/16 02:33:48;;;;;;;13.23;3.38;;;11.60;99.90;;;;;;5080857;28;20602;-69
2022/05/16 02:36:14;;;;;;;11.82;3.50;;;11.60;99.90;;;;;;5121425;27;20027;-68
2022/05/16 02:38:40;;;;;;;11.15;3.10;;;11.60;99.90;;;;;;5100140;27;20520;-69
2022/05/16 02:41:07;;;;;;;8.82;3.58;;;11.60;99.90;;;;;;5101581;27;20499;-69
2022/05/16 02:43:32;;;;;;;7.32;3.00;;;11.60;99.90;;;;;;5115941;27;20050;-69
2022/05/16 02:45:58;;;;;;;7.80;2.85;;;11.50;99.90;;;;;;5109137;27;20353;-68
2022/05/16 02:48:24;;;;;;;7.00;3.17;;;11.50;99.90;;;;;;5119453;27;20043;-68
2022/05/16 02:50:49;;;;;;;8.80;2.58;;;11.50;99.90;;;;;;5104226;27;20071;-68
2022/05/16 02:53:15;;;;;;;8.75;2.70;;;11.50;99.90;;;;;;5100935;27;20039;-69
2022/05/16 02:55:42;;;;;;;7.47;2.55;;;11.40;99.90;;;;;;5095533;27;20182;-69
2022/05/16 02:58:09;;;;;;;8.40;2.70;;;11.30;99.90;;;;;;5088274;27;20058;-68
2022/05/16 03:00:35;;;;;;;7.22;2.75;;;11.40;99.90;;;;;;5093917;27;20051;-68
2022/05/16 03:03:01;;;;;;;4.78;2.53;;;11.30;99.90;;;;;;5108901;27;20058;-68
2022/05/16 03:05:27;;;;;;;5.75;2.60;;;11.30;99.90;;;;;;5100615;27;20043;-68
2022/05/16 03:07:53;;;;;;;6.07;2.78;;;11.30;99.90;;;;;;5116955;27;20051;-68
2022/05/16 03:10:18;;;;;;;6.72;2.83;;;11.30;99.90;;;;;;5120742;27;20038;-67
2022/05/16 03:12:45;;;;;;;9.85;2.45;;;11.20;99.90;;;;;;5103056;27;20514;-68
2022/05/16 03:15:13;;;;;;;5.15;2.45;;;11.20;99.90;;;;;;5084234;27;20067;-67
2022/05/16 03:17:40;;;;;;;7.25;2.33;;;11.20;99.90;;;;;;5104622;27;20119;-67
2022/05/16 03:20:12;;;;;;;7.68;2.40;;;11.20;99.90;;;;;;5124575;27;20198;-68
2022/05/16 03:22:37;;;;;;;5.82;2.55;;;11.20;99.90;;;;;;5102777;27;20069;-68
2022/05/16 03:25:06;;;;;;;6.70;2.05;;;11.10;99.90;;;;;;5118331;27;20040;-68
2022/05/16 03:27:32;;;;;;;7.57;2.80;;;11.10;99.90;;;;;;5081163;27;20047;-68
2022/05/16 03:29:57;;;;;;;7.55;2.28;;;11.10;99.90;;;;;;5100192;27;20047;-68
2022/05/16 03:32:23;;;;;;;7.75;2.40;;;11.10;99.90;;;;;;5100335;27;20058;-68
2022/05/16 03:34:56;;;;;;;7.95;2.58;;;11.10;99.90;;;;;;5098650;27;20407;-68
2022/05/16 03:37:22;;;;;;;5.85;2.33;;;11.00;99.90;;;;;;5103093;27;20528;-68
2022/05/16 03:42:32;;;;;;;7.53;2.25;;;11.00;99.90;;;;;;5097947;27;20073;-68
2022/05/16 03:44:58;;;;;;;10.00;2.20;;;11.00;99.90;;;;;;5084335;27;20251;-68
2022/05/16 03:47:24;;;;;;;7.35;2.38;;;11.00;99.90;;;;;;5121259;27;20042;-68
2022/05/16 03:49:50;;;;;;;5.40;2.30;;;11.00;99.90;;;;;;5083050;27;20125;-68
2022/05/16 03:52:15;;;;;;;9.48;2.15;;;11.00;99.90;;;;;;5100799;28;20039;-68
2022/05/16 03:54:41;;;;;;;8.52;2.40;;;11.00;99.90;;;;;;5100450;27;20039;-68
2022/05/16 03:57:07;;;;;;;6.10;2.13;;;11.10;99.90;;;;;;5099582;27;20103;-69
2022/05/16 03:59:36;;;;;;;6.90;3.17;;;11.00;99.90;;;;;;5097707;27;20039;-68
2022/05/16 04:02:02;;;;;;;8.77;2.58;;;11.10;99.90;;;;;;5084368;27;20047;-68
2022/05/16 04:04:28;;;;;;;7.38;1.92;;;11.10;99.90;;;;;;5118899;27;20078;-68
2022/05/16 04:06:54;;;;;;;8.23;2.45;;;11.10;99.90;;;;;;5100396;27;20484;-68
2022/05/16 04:09:20;;;;;;;9.40;3.10;;;11.30;99.90;;;;;;5102022;27;20035;-68
2022/05/16 04:11:46;;;;;;;5.93;2.03;;;11.20;99.90;;;;;;5119102;27;20255;-68
2022/05/16 04:14:12;;;;;;;7.88;2.42;;;11.10;99.90;;;;;;5099351;27;20035;-68
2022/05/16 04:16:38;;;;;;;6.35;2.10;;;11.20;99.90;;;;;;5113544;27;20047;-68
2022/05/16 04:19:09;;;;;;;7.13;2.17;;;11.20;99.90;;;;;;5094811;27;20415;-69
2022/05/16 04:21:38;;;;;;;6.53;2.13;;;11.30;99.90;;;;;;5085262;27;20122;-68
2022/05/16 04:24:06;;;;;;;7.97;2.05;;;11.30;99.90;;;;;;5097978;27;20101;-69
2022/05/16 04:26:32;;;;;;;7.55;2.10;;;11.40;99.90;;;;;;5101449;27;20122;-68
2022/05/16 04:28:57;;;;;;;5.38;1.83;;;11.40;99.90;;;;;;5099282;27;20047;-69
2022/05/16 04:31:25;;;;;;;5.47;2.00;;;11.50;99.90;;;;;;5120777;27;20411;-69
2022/05/16 04:33:50;;;;;;;7.63;1.83;;;12.50;99.90;;;;;;5099448;27;20037;-68
2022/05/16 04:36:16;;;;;;;5.93;1.80;;;13.50;99.90;;;;;;5094905;27;20032;-69
2022/05/16 04:38:42;;;;;;;7.57;1.98;;;14.50;99.90;;;;;;5098696;27;20035;-69
2022/05/16 04:43:52;;;;;;;13.52;2.03;;;16.10;99.90;;;;;;5093080;27;20043;-69
2022/05/16 04:46:18;;;;;;;6.10;1.92;;;16.80;99.90;;;;;;5087326;27;20872;-68
2022/05/16 04:48:44;;;;;;;6.95;1.92;;;17.10;99.90;;;;;;5089517;27;20571;-68
2022/05/16 04:51:10;;;;;;;8.32;1.92;;;17.60;99.90;;;;;;5087283;27;20514;-68
2022/05/16 04:53:37;;;;;;;6.30;1.95;;;18.00;99.90;;;;;;5072526;27;20415;-68
2022/05/16 04:56:05;;;;;;;7.43;1.60;;;18.30;99.90;;;;;;5075929;27;20104;-68
2022/05/16 04:58:33;;;;;;;6.50;1.80;;;18.30;99.90;;;;;;5072303;28;20613;-68
2022/05/16 05:01:01;;;;;;;7.13;2.22;;;18.60;99.90;;;;;;5093677;27;20052;-68
2022/05/16 05:03:27;;;;;;;6.20;1.85;;;19.00;99.90;;;;;;5073678;27;20050;-68
2022/05/16 05:05:53;;;;;;;5.60;1.70;;;18.60;99.90;;;;;;5077783;28;20071;-68
2022/05/16 05:08:19;;;;;;;7.40;2.45;;;18.10;99.90;;;;;;5114280;27;20504;-68
2022/05/16 05:16:17;;;;;;;4.68;1.88;;;16.20;99.90;;;;;;5106929;27;20055;-68
2022/05/16 05:18:44;;;;;;;8.82;2.97;;;15.90;99.90;;;;;;5109331;27;20035;-69
2022/05/16 05:21:10;;;;;;;7.80;2.05;;;15.50;99.90;;;;;;5077935;28;20461;-68
2022/05/16 05:23:38;;;;;;;6.65;1.80;;;15.10;99.90;;;;;;5088824;28;20107;-68
2022/05/16 05:26:05;;;;;;;6.30;1.92;;;14.90;99.90;;;;;;5110275;28;20047;-68
2022/05/16 05:28:32;;;;;;;7.40;2.00;;;14.70;99.90;;;;;;5091427;28;20134;-68
2022/05/16 05:30:58;;;;;;;5.30;2.05;;;14.40;99.90;;;;;;5113347;27;20051;-68
2022/05/16 05:33:24;;;;;;;8.13;2.33;;;14.30;99.90;;;;;;5116400;28;20417;-67
2022/05/16 05:35:50;;;;;;;7.65;1.90;;;14.10;99.90;;;;;;5075462;28;20107;-68
2022/05/16 05:38:17;;;;;;;6.20;1.95;;;14.00;99.90;;;;;;5082854;28;20049;-68
2022/05/16 05:40:43;;;;;;;5.38;2.00;;;14.10;99.90;;;;;;5081932;28;20587;-68
2022/05/16 05:43:09;;;;;;;7.13;2.20;;;13.90;99.90;;;;;;5110714;28;20122;-68
2022/05/16 05:45:36;;;;;;;6.78;2.30;;;13.90;99.90;;;;;;5116788;27;20043;-68
2022/05/16 05:48:02;;;;;;;6.18;1.65;;;13.70;99.90;;;;;;5114399;27;20034;-68
2022/05/16 05:50:28;;;;;;;7.60;2.30;;;13.60;99.90;;;;;;5104627;27;20043;-68
2022/05/16 05:52:54;;;;;;;8.85;2.30;;;13.50;99.90;;;;;;5118606;27;20081;-68
2022/05/16 05:55:20;;;;;;;9.43;2.25;;;13.50;99.90;;;;;;5098916;27;20435;-68
2022/05/16 05:57:46;;;;;;;9.32;2.50;;;13.50;99.90;;;;;;5122722;27;20047;-68
2022/05/16 06:00:13;;;;;;;8.60;2.50;;;13.50;99.90;;;;;;5122207;27;20051;-68
2022/05/16 06:02:40;;;;;;;7.13;2.45;;;13.60;99.90;;;;;;5084778;27;20052;-67
2022/05/16 06:05:18;;;;;;;7.75;2.35;;;13.70;99.90;;;;;;5113560;27;20055;-68
2022/05/16 06:07:44;;;;;;;6.32;2.08;;;13.90;99.90;;;;;;5097641;27;20039;-68
2022/05/16 06:10:10;;;;;;;6.60;2.40;;;14.00;99.90;;;;;;5095794;27;20442;-66
2022/05/16 06:12:36;;;;;;;7.90;2.25;;;14.10;99.90;;;;;;5104622;27;20063;-67
2022/05/16 06:15:04;;;;;;;8.82;2.60;;;14.20;99.90;;;;;;5095499;27;20039;-66
2022/05/16 06:17:30;;;;;;;8.10;2.22;;;14.20;99.90;;;;;;5079044;27;20047;-67
2022/05/16 06:19:57;;;;;;;5.90;2.17;;;14.20;99.90;;;;;;5093887;27;20035;-67
2022/05/16 06:22:23;;;;;;;11.52;2.83;;;14.30;99.90;;;;;;5092034;27;20126;-66
2022/05/16 06:27:34;;;;;;;11.55;2.70;;;15.10;99.90;;;;;;5108222;27;20054;-66
2022/05/16 06:30:00;;;;;;;9.57;2.60;;;15.10;99.90;;;;;;5094607;27;20123;-66
2022/05/16 06:32:26;;;;;;;9.38;2.88;;;15.20;99.90;;;;;;5117377;27;20397;-66
2022/05/16 06:34:52;;;;;;;10.30;2.78;;;15.30;99.90;;;;;;5083924;27;20040;-68
2022/05/16 06:37:19;;;;;;;10.63;2.72;;;15.60;99.90;;;;;;5097385;27;20082;-68
2022/05/16 06:39:45;;;;;;;8.23;2.53;;;15.80;99.90;;;;;;5104513;27;20387;-68
2022/05/16 06:42:12;;;;;;;6.57;2.60;;;16.20;99.90;;;;;;5112993;27;20061;-68
2022/05/16 06:44:38;;;;;;;9.43;2.70;;;16.20;99.90;;;;;;5118526;27;20515;-68
2022/05/16 06:47:05;;;;;;;8.18;2.40;;;16.00;99.90;;;;;;5092637;27;20408;-68
2022/05/16 06:49:31;;;;;;;9.07;2.75;;;15.90;99.90;;;;;;5090636;27;20123;-68
2022/05/16 06:51:57;;;;;;;10.15;2.63;;;15.80;99.90;;;;;;5080888;27;20069;-68
2022/05/16 06:54:23;;;;;;;8.48;2.30;;;15.80;99.90;;;;;;5078814;27;20039;-68
2022/05/16 06:56:48;;;;;;;7.53;2.42;;;15.80;99.90;;;;;;5123896;27;20069;-68
2022/05/16 06:59:14;;;;;;;7.30;2.38;;;15.80;99.90;;;;;;5102762;27;20130;-68
2022/05/16 07:01:55;;;;;;;9.30;2.90;;;15.90;99.90;;;;;;5067152;27;20446;-67
2022/05/16 07:04:21;;;;;;;9.52;2.47;;;16.00;99.90;;;;;;5077178;28;20149;-66
2022/05/16 07:06:46;;;;;;;10.25;2.72;;;16.20;99.90;;;;;;5076992;28;20055;-67
2022/05/16 07:09:12;;;;;;;8.88;2.17;;;16.30;99.90;;;;;;5079932;28;20062;-67
2022/05/16 07:11:38;;;;;;;9.63;2.55;;;16.40;99.90;;;;;;5062297;28;20033;-67
2022/05/16 07:14:04;;;;;;;7.63;2.33;;;16.50;99.90;;;;;;5079589;28;21098;-67
2022/05/16 07:16:29;;;;;;;11.05;2.90;;;16.60;99.90;;;;;;5073226;28;20133;-66
2022/05/16 07:18:55;;;;;;;7.72;2.83;;;16.80;99.90;;;;;;5074359;28;20048;-66
2022/05/16 07:21:21;;;;;;;9.30;2.63;;;17.00;99.90;;;;;;5078538;28;20051;-67
2022/05/16 07:23:46;;;;;;;7.35;2.25;;;17.20;99.90;;;;;;5071674;28;20057;-67
2022/05/16 07:28:57;;;;;;;7.93;2.63;;;18.00;99.90;;;;;;5077797;28;20060;-67
2022/05/16 07:31:23;;;;;;;6.97;2.30;;;18.30;99.90;;;;;;5075671;28;20040;-67
2022/05/16 07:33:48;;;;;;;6.68;2.30;;;19.00;99.90;;;;;;5074264;28;20048;-67
2022/05/16 07:36:14;;;;;;;10.07;2.40;;;19.80;99.90;;;;;;5076259;28;20036;-68
2022/05/16 07:38:40;;;;;;;7.93;2.60;;;20.10;99.90;;;;;;5071651;28;20146;-67
2022/05/16 07:41:05;;;;;;;8.38;2.17;;;20.20;99.90;;;;;;5078073;28;20063;-67
2022/05/16 07:43:31;;;;;;;10.15;2.67;;;20.20;99.90;;;;;;5076717;28;20064;-68
2022/05/16 07:45:57;;;;;;;8.90;2.30;;;20.20;99.90;;;;;;5073473;28;20135;-67
2022/05/16 07:48:23;;;;;;;8.77;2.33;;;20.20;99.90;;;;;;5080817;28;21346;-67
2022/05/16 07:50:49;;;;;;;10.38;2.53;;;20.30;99.90;;;;;;5059193;28;20040;-67
2022/05/16 07:53:15;;;;;;;8.18;2.13;;;20.50;99.90;;;;;;5076434;28;20382;-68
2022/05/16 07:55:44;;;;;;;8.60;2.28;;;20.80;99.90;;;;;;5078039;28;20109;-68
2022/05/16 07:58:11;;;;;;;12.80;2.58;;;20.90;99.90;;;;;;5075235;28;20032;-67
2022/05/16 08:00:37;;;;;;;9.15;2.50;;;21.20;99.90;;;;;;5074603;28;20056;-67
2022/05/16 08:03:04;;;;;;;11.68;3.33;;;21.20;99.90;;;;;;5061565;28;20071;-68
2022/05/16 08:05:30;;;;;;;8.70;2.35;;;21.40;99.90;;;;;;5077451;28;20072;-67
2022/05/16 08:10:41;;;;;;;8.13;2.30;;;21.70;99.90;;;;;;5076789;28;20135;-68
2022/05/16 08:13:10;;;;;;;10.32;2.85;;;21.90;99.90;;;;;;5064325;28;20080;-68
2022/05/16 08:15:39;;;;;;;9.02;3.03;;;22.00;99.90;;;;;;5062659;28;20076;-68
2022/05/16 08:18:05;;;;;;;13.55;3.00;;;22.10;99.90;;;;;;5063827;28;20449;-68
2022/05/16 08:20:32;;;;;;;10.10;2.47;;;22.20;99.90;;;;;;5065445;28;20120;-68
2022/05/16 08:22:58;;;;;;;11.35;2.90;;;22.50;99.90;;;;;;5048110;28;20048;-69
2022/05/16 08:25:24;;;;;;;11.68;2.40;;;22.90;99.90;;;;;;5062175;28;20094;-68
2022/05/16 08:27:50;;;;;;;10.10;2.63;;;23.00;99.90;;;;;;5060943;28;20044;-68
2022/05/16 08:30:22;;;;;;;10.60;2.45;;;23.20;99.90;;;;;;5063782;28;20563;-68
2022/05/16 08:32:48;;;;;;;9.88;2.50;;;23.40;99.30;;;;;;5063248;28;20574;-68
2022/05/16 08:35:14;;;;;;;10.27;2.80;;;23.50;99.70;;;;;;5062881;28;20047;-68
2022/05/16 08:40:37;;;;;;;12.23;3.15;;;23.60;97.90;;;;;;5097205;28;20044;-68
2022/05/16 08:43:31;;;;;;;10.70;2.60;;;23.50;96.80;;;;;;5046272;28;20041;-69
2022/05/16 08:46:17;;;;;;;10.20;3.28;;;23.60;98.00;;;;;;5057372;28;20522;-68
2022/05/16 08:48:47;;;;;;;7.93;2.35;;;23.70;96.20;;;;;;5041536;28;20429;-68
2022/05/16 08:51:23;;;;;;;8.98;2.58;;;23.70;96.50;;;;;;5055035;28;20045;-68
2022/05/16 08:54:08;;;;;;;9.52;2.63;;;23.60;96.00;;;;;;5041986;28;20068;-68
2022/05/16 08:56:38;;;;;;;6.35;2.10;;;23.60;98.20;;;;;;5063870;28;20048;-68
2022/05/16 08:59:13;;;;;;;11.82;2.90;;;23.70;97.80;;;;;;5060065;28;20102;-69
2022/05/16 09:01:50;;;;;;;10.00;2.92;;;23.80;97.70;;;;;;5053477;28;20052;-68
2022/05/16 09:04:47;;;;;;;9.90;2.80;;;23.80;97.90;;;;;;5060468;28;20384;-68
2022/05/16 09:07:20;;;;;;;10.00;2.40;;;23.70;97.20;;;;;;5054936;28;20483;-68
2022/05/16 09:10:13;;;;;;;10.77;3.15;;;23.40;97.00;;;;;;5054314;28;20056;-69
2022/05/16 09:13:13;;;;;;;11.55;2.75;;;23.20;97.50;;;;;;5063815;28;20122;-68
2022/05/16 09:16:01;;;;;;;12.80;2.72;;;22.90;97.90;;;;;;5060221;28;20539;-68
2022/05/16 09:18:59;;;;;;;9.80;2.55;;;22.70;99.30;;;;;;5056314;28;20401;-68
2022/05/16 09:21:39;;;;;;;10.38;2.53;;;22.80;99.90;;;;;;5057612;28;20620;-68
2022/05/16 09:24:10;;;;;;;10.37;2.60;;;23.00;99.70;;;;;;5087739;28;20048;-68
2022/05/16 09:26:58;;;;;;;9.70;2.47;;;23.20;99.90;;;;;;5072336;28;20295;-68
2022/05/16 09:29:32;;;;;;;10.68;2.65;;;23.40;97.70;;;;;;5051075;28;20044;-69
2022/05/16 09:32:21;;;;;;;13.20;2.63;;;23.50;97.80;;;;;;5055197;28;20044;-67
2022/05/16 09:34:47;;;;;;;13.05;2.75;;;23.70;97.00;;;;;;5029441;28;20057;-68
2022/05/16 09:37:13;;;;;;;15.68;3.00;;;23.80;97.10;;;;;;5022261;28;20070;-69
2022/05/16 09:39:39;;;;;;;11.73;2.70;;;24.10;95.60;;;;;;5055712;28;20045;-67
2022/05/16 09:42:21;;;;;;;10.85;2.80;;;24.30;95.70;;;;;;5057306;28;20120;-68
2022/05/16 09:44:57;;;;;;;7.70;2.60;;;24.90;96.50;;;;;;5048691;28;20052;-68
2022/05/16 09:47:22;;;;;;;13.20;3.00;;;25.60;97.30;;;;;;5035695;28;20045;-67
2022/05/16 09:50:28;;;;;;;12.70;2.80;;;26.00;96.50;;;;;;5056235;28;20059;-68
2022/05/16 09:53:04;;;;;;;11.98;3.03;;;26.30;95.10;;;;;;5052162;28;20301;-69
2022/05/16 09:55:53;;;;;;;8.10;2.45;;;26.70;94.60;;;;;;5055207;28;20041;-69
2022/05/16 09:58:26;;;;;;;10.02;2.55;;;27.10;91.90;;;;;;5052686;28;20078;-69
2022/05/16 10:00:57;;;;;;;12.38;2.50;;;27.20;91.10;;;;;;5050808;28;20147;-68
2022/05/16 10:03:31;;;;;;;11.52;2.60;;;27.30;88.80;;;;;;5056498;28;20432;-68
2022/05/16 10:06:03;;;;;;;13.02;2.90;;;27.40;87.70;;;;;;5044299;28;20413;-68
2022/05/16 10:08:32;;;;;;;10.10;2.70;;;27.30;85.00;;;;;;5040410;28;20040;-69
2022/05/16 10:11:03;;;;;;;13.40;2.63;;;27.00;85.40;;;;;;5058744;28;20417;-68
2022/05/16 10:13:29;;;;;;;13.93;2.67;;;26.80;87.10;;;;;;5046934;28;20052;-69
2022/05/16 10:15:57;;;;;;;11.93;3.08;;;26.60;86.60;;;;;;5032114;28;20077;-69
2022/05/16 10:18:25;;;;;;;10.18;2.70;;;26.50;87.00;;;;;;5052771;28;20041;-69
2022/05/16 10:21:00;;;;;;;6.85;2.35;;;26.30;83.40;;;;;;5047142;28;20456;-69
2022/05/16 10:23:31;;;;;;;13.80;2.75;;;26.20;85.10;;;;;;5030666;28;20415;-68
2022/05/16 10:26:03;;;;;;;10.45;2.40;;;26.10;85.30;;;;;;5058240;28;20044;-68
2022/05/16 10:28:49;;;;;;;8.40;2.50;;;26.10;87.20;;;;;;5046892;28;20389;-69
2022/05/16 10:34:14;;;;;;;14.75;2.60;;;26.30;84.10;;;;;;5027426;28;20130;-69
2022/05/16 10:36:42;;;;;;;9.93;2.58;;;26.70;85.00;;;;;;5052122;28;20041;-68
2022/05/16 10:39:14;;;;;;;9.20;1.98;;;26.90;84.10;;;;;;5052325;28;20663;-68
2022/05/16 10:41:54;;;;;;;7.47;2.42;;;27.20;83.20;;;;;;5044070;28;20049;-68
2022/05/16 10:44:34;;;;;;;10.33;2.50;;;27.50;82.40;;;;;;5054034;28;20072;-69
2022/05/16 10:47:10;;;;;;;9.75;2.30;;;27.30;80.40;;;;;;5053840;28;20040;-69
2022/05/16 10:49:46;;;;;;;13.57;2.55;;;27.10;82.10;;;;;;5053388;28;20056;-69
2022/05/16 10:52:36;;;;;;;9.75;2.35;;;26.90;80.30;;;;;;5049578;28;20041;-68
2022/05/16 10:55:02;;;;;;;10.73;2.33;;;26.80;80.40;;;;;;5046691;28;20062;-68
2022/05/16 10:57:31;;;;;;;9.98;2.53;;;26.70;83.00;;;;;;5050584;28;20138;-70
2022/05/16 11:00:15;;;;;;;9.73;2.50;;;26.60;83.30;;;;;;5088625;28;20068;-69
2022/05/16 11:02:56;;;;;;;7.45;2.50;;;26.50;81.60;;;;;;5066166;28;20045;-69
2022/05/16 11:05:42;;;;;;;;;;;26.20;80.90;;;;;;5081061;28;20619;-69
2022/05/16 11:08:34;;;;;;;12.48;2.47;;;26.00;82.50;;;;;;5044717;28;19932;-68
2022/05/16 11:11:25;;;;;;;11.80;2.50;;;25.70;83.40;;;;;;5051884;28;20476;-70
2022/05/16 11:14:14;;;;;;;10.65;2.53;;;25.50;83.30;;;;;;5056560;28;20083;-68
2022/05/16 11:16:39;;;;;;;10.73;2.53;;;25.30;82.00;;;;;;5031410;28;20123;-68
2022/05/16 11:19:13;;;;;;;9.30;2.58;;;25.00;82.80;;;;;;5053049;28;20497;-68
2022/05/16 11:21:39;;;;;;;12.68;2.30;;;24.90;83.30;;;;;;5040344;28;20112;-68
2022/05/16 11:24:21;;;;;;;10.43;2.65;;;24.80;84.00;;;;;;5031479;28;20660;-69
2022/05/16 11:26:53;;;;;;;13.25;2.55;;;24.70;84.50;;;;;;5035262;28;20060;-69
2022/05/16 11:29:28;;;;;;;8.73;2.63;;;24.60;83.50;;;;;;5023625;28;20160;-68
2022/05/16 11:31:58;;;;;;;10.60;2.60;;;24.60;84.20;;;;;;5010775;28;20503;-68
2022/05/16 11:34:52;;;;;;;9.70;2.40;;;24.50;82.30;;;;;;5040809;28;20072;-69
2022/05/16 11:37:32;;;;;;;11.80;2.58;;;24.50;84.30;;;;;;5040373;28;20706;-69
2022/05/16 11:40:26;;;;;;;9.85;2.50;;;24.60;83.00;;;;;;5022441;28;20053;-69
2022/05/16 11:43:18;;;;;;;11.35;2.72;;;24.60;85.30;;;;;;5030834;28;21288;-69
2022/05/16 11:46:06;;;;;;;11.05;2.47;;;24.80;86.20;;;;;;5014302;28;20052;-69
2022/05/16 11:48:55;;;;;;;12.57;3.13;;;24.90;85.70;;;;;;5071228;28;20048;-69
2022/05/16 11:51:46;;;;;;;10.32;2.40;;;25.00;87.20;;;;;;5041360;28;20128;-69
2022/05/16 11:54:20;;;;;;;12.52;2.83;;;25.10;86.90;;;;;;5050210;28;20127;-69
2022/05/16 12:03:06;;;;;;;10.90;2.70;;;25.30;86.90;;;;;;5073643;28;20270;-69
2022/05/16 12:05:50;;;;;;;12.48;2.80;;;25.30;88.80;;;;;;5043418;28;20045;-70
2022/05/16 12:08:25;;;;;;;10.93;2.92;;;25.50;89.40;;;;;;5071471;28;20429;-69
2022/05/16 12:11:11;;;;;;;10.23;2.85;;;25.70;89.70;;;;;;5037256;28;20370;-70
2022/05/16 12:14:01;;;;;;;12.95;3.47;;;25.80;89.40;;;;;;5059562;28;20060;-69
2022/05/16 12:16:42;;;;;;;12.18;3.03;;;25.60;88.40;;;;;;5059768;28;20033;-68
2022/05/16 12:19:28;;;;;;;9.80;2.90;;;25.40;89.00;;;;;;5054901;28;20127;-68
2022/05/16 12:21:56;;;;;;;21.83;3.75;;;25.10;89.20;;;;;;5060125;28;20044;-68
2022/05/16 12:24:28;;;;;;;21.02;3.33;;;24.90;90.00;;;;;;5043677;28;20041;-68
2022/05/16 12:27:06;;;;;;;9.60;3.28;;;24.70;90.50;;;;;;5027563;28;20573;-68
2022/05/16 12:29:45;;;;;;;9.82;3.15;;;24.50;90.60;;;;;;5043948;28;20047;-68
2022/05/16 12:32:30;;;;;;;9.88;2.88;;;24.30;90.90;;;;;;5046209;28;20041;-68
2022/05/16 12:35:01;;;;;;;8.98;3.08;;;24.10;91.40;;;;;;5040319;28;20056;-69
2022/05/16 12:37:27;;;;;;;;;;;24.00;91.80;;;;;;5042923;28;20049;-68
2022/05/16 12:40:10;;;;;;;12.60;3.53;;;23.90;92.00;;;;;;5052285;28;19932;-68
2022/05/16 12:42:36;;;;;;;14.38;2.80;;;23.90;92.80;;;;;;5040035;28;20055;-69
2022/05/16 12:45:16;;;;;;;11.40;2.80;;;23.90;93.40;;;;;;5052973;28;20036;-69
2022/05/16 12:47:53;;;;;;;10.98;2.95;;;24.00;94.00;;;;;;5041712;28;20369;-68
2022/05/16 12:50:23;;;;;;;15.40;3.53;;;24.10;93.70;;;;;;5020843;28;20079;-69
2022/05/16 12:53:21;;;;;;;8.63;2.87;;;24.30;93.60;;;;;;5029226;28;20045;-68
2022/05/16 12:56:12;;;;;;;15.90;3.50;;;24.50;94.40;;;;;;5027602;28;20068;-68
2022/05/16 12:58:42;;;;;;;;;;;24.80;94.30;;;;;;5046144;28;20040;-68
2022/05/16 13:01:25;;;;;;;10.30;2.95;;;25.20;94.40;;;;;;5044305;28;19935;-69
2022/05/16 13:03:57;;;;;;;11.25;3.28;;;25.50;94.50;;;;;;5044007;28;20406;-68
2022/05/16 13:06:55;;;;;;;11.77;3.30;;;25.80;93.70;;;;;;5052254;28;20049;-69
2022/05/16 13:09:34;;;;;;;9.75;3.30;;;26.00;93.80;;;;;;5049541;28;20040;-68
2022/05/16 13:12:46;;;;;;;10.05;3.55;;;26.00;93.10;;;;;;5026732;28;20041;-69
2022/05/16 13:15:51;;;;;;;11.32;3.30;;;25.80;92.40;;;;;;5023830;28;20757;-69
2022/05/16 13:18:28;;;;;;;13.20;3.65;;;25.50;92.70;;;;;;5051207;28;20041;-68
2022/05/16 13:20:56;;;;;;;11.23;3.88;;;25.30;93.00;;;;;;5046466;28;20635;-68
2022/05/16 13:23:22;;;;;;;13.15;3.83;;;25.20;93.10;;;;;;5029366;28;20056;-69
2022/05/16 13:31:33;;;;;;;13.70;4.07;;;24.80;94.60;;;;;;5043814;28;20078;-68
2022/05/16 13:34:04;;;;;;;11.18;3.88;;;24.60;94.90;;;;;;5048149;28;20135;-68
2022/05/16 13:36:31;;;;;;;10.70;4.00;;;24.50;95.40;;;;;;5038896;28;20094;-69
2022/05/16 13:39:11;;;;;;;11.20;4.22;;;24.40;95.10;;;;;;5050579;28;20084;-68
2022/05/16 13:41:38;;;;;;;14.33;3.80;;;24.20;95.30;;;;;;5053921;28;20036;-68
2022/05/16 13:44:05;;;;;;;10.68;4.10;;;24.00;96.00;;;;;;5050742;28;20047;-68
2022/05/16 13:46:34;;;;;;;11.60;4.25;;;23.90;96.30;;;;;;5044721;28;20074;-68